Terminal Aerodrome Forecast
Issued by NWS

Home | Current Version | Previous Version | Text Only | Print | Product List | Glossary On
Versions: 1 2 3 4 5 6 7 8 9 10 11 12 13 14 15 16
639
FTUS43 KILX 112345
TAFDEC
TAF
KDEC 112345Z 1200/1224 VRB03KT P6SM OVC080
     FM120600 15004KT 5SM -SN OVC035
     FM120700 24004KT 2SM -SN BR OVC012
     FM121300 29008KT P6SM OVC015
     FM121600 30012G17KT P6SM BKN025
     FM122000 31017G26KT P6SM SCT025=

USA.gov is the U.S. government's official web portal to all federal, state and local government web resources and services.